createdAt,value
2022-08-28T00:01:12.105Z,93.06
2022-08-28T00:06:14.912Z,92.93
2022-08-28T00:11:19.695Z,93.05
2022-08-28T00:16:22.591Z,93.17
2022-08-28T00:21:31.975Z,93.15
2022-08-28T00:26:53.880Z,93.12
2022-08-28T00:31:57.516Z,93.35
2022-08-28T00:37:00.313Z,93.07
2022-08-28T00:42:05.335Z,93.08
2022-08-28T00:47:10.012Z,93.36
2022-08-28T00:52:15.345Z,93.27
2022-08-28T00:57:27.152Z,93.60
2022-08-28T01:02:31.910Z,93.20
2022-08-28T01:07:35.272Z,93.30
2022-08-28T01:12:39.722Z,93.31
2022-08-28T01:17:47.333Z,93.30
2022-08-28T01:23:01.159Z,93.26
2022-08-28T01:28:07.864Z,93.19
2022-08-28T01:33:10.712Z,93.24
2022-08-28T01:38:15.501Z,93.26
2022-08-28T01:43:26.898Z,93.13
2022-08-28T01:48:32.220Z,93.53
2022-08-28T01:53:35.985Z,93.62
2022-08-28T01:58:40.966Z,93.75
2022-08-28T02:03:44.115Z,94.12
2022-08-28T02:08:47.150Z,94.07
2022-08-28T02:13:52.112Z,94.37
2022-08-28T02:18:58.348Z,94.03
2022-08-28T02:24:01.134Z,94.23
2022-08-28T02:29:06.276Z,94.44
2022-08-28T02:34:11.456Z,94.68
2022-08-28T02:39:14.346Z,95.27
2022-08-28T02:44:18.507Z,95.28
2022-08-28T02:49:23.015Z,95.54
2022-08-28T02:54:27.288Z,95.79
2022-08-28T02:59:32.114Z,96.22
2022-08-28T03:04:35.671Z,96.40
2022-08-28T03:09:38.717Z,96.56
2022-08-28T03:14:43.457Z,96.66
2022-08-28T03:19:46.309Z,96.80
2022-08-28T03:24:49.111Z,96.86
2022-08-28T03:29:53.301Z,97.01
2022-08-28T03:34:56.174Z,97.21
2022-08-28T03:39:59.125Z,97.28
2022-08-28T03:45:03.505Z,97.44
2022-08-28T03:50:08.093Z,97.57
2022-08-28T03:55:14.432Z,97.79
2022-08-28T04:00:19.177Z,97.95
2022-08-28T04:05:22.339Z,98.20
2022-08-28T04:10:27.809Z,98.39
2022-08-28T04:15:32.025Z,98.62
2022-08-28T04:20:34.936Z,98.90
2022-08-28T04:25:40.861Z,99.33
2022-08-28T04:30:45.080Z,99.57
2022-08-28T04:35:47.944Z,99.68
2022-08-28T04:40:50.793Z,99.49
2022-08-28T04:45:55.007Z,99.93
2022-08-28T04:50:58.157Z,99.95
2022-08-28T04:56:01.436Z,100.00
2022-08-28T05:01:09.292Z,100.00
2022-08-28T05:06:13.985Z,100.00
2022-08-28T05:11:22.105Z,100.00
2022-08-28T05:16:44.195Z,100.00
2022-08-28T05:21:47.398Z,100.00
2022-08-28T05:26:50.465Z,100.00
2022-08-28T05:31:54.782Z,100.00
2022-08-28T05:36:58.069Z,100.00
2022-08-28T05:42:01.009Z,100.00
2022-08-28T05:47:05.448Z,99.51
2022-08-28T05:52:08.277Z,98.89
2022-08-28T05:57:11.169Z,99.24
2022-08-28T06:02:15.603Z,99.14
2022-08-28T06:07:19.405Z,98.36
2022-08-28T06:12:22.746Z,98.50
2022-08-28T06:17:27.193Z,98.38
2022-08-28T06:22:30.165Z,98.28
2022-08-28T06:27:34.236Z,98.19
2022-08-28T06:32:38.735Z,98.30
2022-08-28T06:37:41.971Z,98.45
2022-08-28T06:42:45.038Z,98.50
2022-08-28T06:47:50.026Z,98.42
2022-08-28T06:52:57.694Z,97.97
2022-08-28T06:58:00.682Z,97.95
2022-08-28T07:03:05.984Z,97.48
2022-08-28T07:08:09.394Z,97.54
2022-08-28T07:13:12.786Z,97.64
2022-08-28T07:18:18.196Z,97.46
2022-08-28T07:23:21.184Z,96.51
2022-08-28T07:28:24.749Z,94.74
2022-08-28T07:33:30.068Z,93.31
2022-08-28T07:38:32.975Z,92.79
2022-08-28T07:43:55.239Z,91.67
2022-08-28T07:49:00.083Z,90.82
2022-08-28T07:54:03.972Z,90.44
2022-08-28T07:59:07.674Z,89.57
2022-08-28T08:04:14.339Z,89.27
2022-08-28T08:09:19.404Z,87.49
2022-08-28T08:14:22.405Z,87.31
2022-08-28T08:19:26.768Z,85.54
2022-08-28T08:24:30.567Z,84.09
2022-08-28T08:29:37.053Z,82.91
2022-08-28T08:34:46.052Z,83.67
2022-08-28T08:39:50.843Z,83.11
2022-08-28T08:44:57.170Z,83.29
2022-08-28T08:50:03.834Z,83.35
2022-08-28T08:55:34.423Z,83.83
2022-08-28T09:00:40.894Z,83.72
2022-08-28T09:05:53.855Z,83.37
2022-08-28T09:11:03.317Z,83.41
2022-08-28T09:16:19.418Z,83.31
2022-08-28T09:21:30.917Z,83.00
2022-08-28T09:26:34.843Z,82.58
2022-08-28T09:31:41.302Z,82.64
2022-08-28T09:36:45.997Z,82.15
2022-08-28T09:42:23.476Z,82.47
2022-08-28T09:47:52.972Z,82.55
2022-08-28T09:53:33.787Z,82.81
2022-08-28T09:58:53.879Z,82.19
2022-08-28T10:10:02.660Z,81.42
2022-08-28T10:15:18.482Z,81.16
2022-08-28T10:21:09.839Z,80.44
2022-08-28T10:33:12.991Z,79.01
2022-08-28T10:38:40.128Z,78.06
2022-08-28T10:43:48.189Z,78.03
2022-08-28T10:49:17.241Z,77.30
2022-08-28T10:54:57.592Z,78.35
2022-08-28T11:00:19.792Z,78.07
2022-08-28T11:12:00.999Z,76.07
2022-08-28T11:17:18.565Z,74.71
2022-08-28T11:22:51.483Z,73.70
2022-08-28T11:35:03.534Z,73.19
2022-08-28T11:40:21.541Z,73.56
2022-08-28T11:46:01.750Z,72.55
2022-08-28T11:51:09.790Z,71.06
2022-08-28T11:56:41.708Z,70.46
2022-08-28T12:01:45.934Z,69.72
2022-08-28T12:06:56.102Z,68.67
2022-08-28T12:12:05.111Z,68.60
2022-08-28T12:17:29.131Z,67.99
2022-08-28T12:22:46.222Z,68.12
2022-08-28T12:27:49.361Z,67.80
2022-08-28T12:33:00.408Z,67.09
2022-08-28T12:38:06.450Z,65.67
2022-08-28T12:43:11.225Z,65.31
2022-08-28T12:48:25.454Z,63.32
2022-08-28T12:53:29.018Z,63.41
2022-08-28T12:58:34.819Z,62.19
2022-08-28T13:03:46.063Z,61.22
2022-08-28T13:08:50.079Z,61.15
2022-08-28T13:13:53.010Z,62.29
2022-08-28T13:19:27.357Z,62.41
2022-08-28T13:24:42.374Z,61.28
2022-08-28T13:30:00.011Z,61.54
2022-08-28T13:35:25.517Z,61.89
2022-08-28T13:40:56.288Z,60.58
2022-08-28T13:45:54.207Z,59.90
2022-08-28T13:51:03.109Z,60.60
2022-08-28T13:56:08.280Z,60.72
2022-08-28T14:01:12.524Z,59.86
2022-08-28T14:06:18.319Z,60.67
2022-08-28T14:11:21.827Z,59.47
2022-08-28T14:16:25.533Z,59.46
2022-08-28T14:21:29.873Z,59.56
2022-08-28T14:26:33.226Z,59.71
2022-08-28T14:31:37.031Z,58.77
2022-08-28T14:36:42.574Z,58.95
2022-08-28T14:41:46.944Z,58.96
2022-08-28T14:46:51.695Z,58.60
2022-08-28T14:52:00.382Z,59.59
2022-08-28T14:57:03.190Z,59.62
2022-08-28T15:02:06.642Z,59.03
2022-08-28T15:07:12.944Z,59.50
2022-08-28T15:12:16.646Z,59.11
2022-08-28T15:17:19.752Z,59.50
2022-08-28T15:22:27.478Z,59.25
2022-08-28T15:27:30.595Z,59.39
2022-08-28T15:32:33.382Z,59.14
2022-08-28T15:37:37.518Z,58.72
2022-08-28T15:42:40.388Z,58.15
2022-08-28T15:47:43.200Z,58.18
2022-08-28T15:52:47.464Z,58.87
2022-08-28T15:57:50.705Z,58.76
2022-08-28T16:02:55.847Z,58.90
2022-08-28T16:08:00.771Z,59.53
2022-08-28T16:13:06.512Z,59.15
2022-08-28T16:18:09.627Z,59.24
2022-08-28T16:23:14.447Z,58.22
2022-08-28T16:28:17.290Z,58.27
2022-08-28T16:33:22.205Z,58.66
2022-08-28T16:38:26.466Z,58.67
2022-08-28T16:43:29.887Z,59.36
2022-08-28T16:48:33.581Z,60.01
2022-08-28T16:53:39.024Z,60.25
2022-08-28T16:58:42.950Z,60.83
2022-08-28T17:03:45.729Z,61.47
2022-08-28T17:08:54.525Z,62.20
2022-08-28T17:14:00.382Z,62.54
2022-08-28T17:19:03.422Z,62.73
2022-08-28T17:24:08.319Z,63.08
2022-08-28T17:29:12.403Z,63.65
2022-08-28T17:34:15.347Z,64.21
2022-08-28T17:39:25.254Z,65.05
2022-08-28T17:44:28.069Z,65.34
2022-08-28T17:49:31.087Z,65.70
2022-08-28T17:54:35.436Z,66.14
2022-08-28T17:59:38.363Z,66.32
2022-08-28T18:04:41.247Z,66.83
2022-08-28T18:09:45.749Z,67.36
2022-08-28T18:14:48.573Z,67.63
2022-08-28T18:19:51.553Z,68.32
2022-08-28T18:24:55.703Z,69.05
2022-08-28T18:29:58.842Z,69.65
2022-08-28T18:35:01.712Z,69.96
2022-08-28T18:40:06.712Z,70.49
2022-08-28T18:45:10.362Z,70.48
2022-08-28T18:50:13.547Z,71.16
2022-08-28T18:55:17.916Z,71.19
2022-08-28T19:00:22.236Z,71.75
2022-08-28T19:05:25.329Z,71.69
2022-08-28T19:10:34.062Z,72.01
2022-08-28T19:15:38.418Z,72.70
2022-08-28T19:20:41.448Z,72.85
2022-08-28T19:25:48.402Z,73.37
2022-08-28T19:30:51.464Z,73.51
2022-08-28T19:35:55.015Z,73.55
2022-08-28T19:40:59.887Z,73.79
2022-08-28T19:46:02.837Z,74.02
2022-08-28T19:51:08.475Z,74.56
2022-08-28T19:56:26.925Z,74.55
2022-08-28T20:01:32.931Z,75.11
2022-08-28T20:06:37.471Z,75.67
2022-08-28T20:11:44.187Z,76.12
2022-08-28T20:16:50.796Z,76.64
2022-08-28T20:21:53.662Z,76.82
2022-08-28T20:26:58.059Z,77.65
2022-08-28T20:32:01.291Z,78.51
2022-08-28T20:37:04.382Z,79.15
2022-08-28T20:42:09.147Z,79.64
2022-08-28T20:47:11.920Z,80.24
2022-08-28T20:52:15.643Z,80.66
2022-08-28T20:57:22.849Z,81.13
2022-08-28T21:02:28.146Z,81.46
2022-08-28T21:07:31.133Z,81.62
2022-08-28T21:12:35.870Z,81.96
2022-08-28T21:17:38.764Z,82.48
2022-08-28T21:22:41.900Z,82.83
2022-08-28T21:27:46.925Z,82.82
2022-08-28T21:32:51.131Z,82.81
2022-08-28T21:37:54.434Z,83.25
2022-08-28T21:42:58.727Z,83.41
2022-08-28T21:48:01.537Z,83.66
2022-08-28T21:53:04.962Z,83.99
2022-08-28T21:58:09.112Z,84.19
2022-08-28T22:03:13.693Z,84.47
2022-08-28T22:08:17.649Z,84.64
2022-08-28T22:13:22.067Z,84.97
2022-08-28T22:18:33.972Z,85.00
2022-08-28T22:23:38.098Z,85.02
2022-08-28T22:28:42.897Z,85.50
2022-08-28T22:33:45.847Z,85.46
2022-08-28T22:38:53.349Z,85.58
2022-08-28T22:43:58.842Z,85.74
2022-08-28T22:49:01.667Z,85.55
2022-08-28T22:54:04.757Z,85.60
2022-08-28T22:59:09.324Z,85.46
2022-08-28T23:04:12.621Z,85.72
2022-08-28T23:09:15.449Z,85.79
2022-08-28T23:14:19.661Z,86.03
2022-08-28T23:19:22.910Z,86.02
2022-08-28T23:24:25.732Z,86.29
2022-08-28T23:29:30.561Z,86.32
2022-08-28T23:34:33.313Z,86.35
2022-08-28T23:39:38.763Z,86.18
2022-08-28T23:44:42.927Z,86.27
2022-08-28T23:49:48.313Z,86.16
2022-08-28T23:54:51.396Z,86.13
2022-08-28T23:59:55.723Z,86.28
